Time;durP1;ratioP1;P1;durP2;ratioP2;P2;SDS_P1;SDS_P2;PMS_P1;PMS_P2;Temp;Humidity;BMP_temperature;BMP_pressure;BME280_temperature;BME280_humidity;BME280_pressure;Samples;Min_cycle;Max_cycle;Signal;HPM_P1;HPM_P2
2023/09/06 00:02:02;;;;;;;21.35;13.68;;;17.10;99.90;;;;;;4972675;28;20031;-89
2023/09/06 00:04:28;;;;;;;22.38;13.95;;;17.10;99.90;;;;;;4972000;28;20050;-86
2023/09/06 00:06:53;;;;;;;22.27;13.75;;;17.10;99.90;;;;;;4973330;28;20037;-88
2023/09/06 00:09:19;;;;;;;23.52;14.73;;;17.00;99.90;;;;;;4971739;28;20026;-89
2023/09/06 00:11:45;;;;;;;29.45;14.57;;;17.00;99.90;;;;;;4972012;28;20045;-88
2023/09/06 00:14:12;;;;;;;24.55;14.95;;;17.00;99.90;;;;;;4988345;28;20052;-86
2023/09/06 00:16:38;;;;;;;28.20;14.77;;;16.90;99.90;;;;;;4974140;28;20011;-89
2023/09/06 00:19:03;;;;;;;24.45;15.02;;;16.90;99.90;;;;;;4973599;28;20034;-86
2023/09/06 00:21:29;;;;;;;24.02;14.95;;;16.80;99.90;;;;;;4974049;28;20030;-89
2023/09/06 00:23:55;;;;;;;23.65;16.02;;;16.90;99.90;;;;;;4972122;28;20502;-89
2023/09/06 00:26:21;;;;;;;26.25;15.35;;;16.80;99.90;;;;;;4972252;28;20026;-89
2023/09/06 00:28:47;;;;;;;36.72;18.10;;;16.80;99.90;;;;;;4988334;28;20034;-88
2023/09/06 00:31:12;;;;;;;32.75;18.35;;;16.70;99.90;;;;;;4973410;28;20031;-88
2023/09/06 00:33:38;;;;;;;32.45;18.35;;;16.60;99.90;;;;;;4973359;28;20039;-88
2023/09/06 00:36:06;;;;;;;26.45;16.98;;;16.60;99.90;;;;;;4972373;28;20030;-89
2023/09/06 00:38:32;;;;;;;26.85;16.83;;;16.50;99.90;;;;;;4971635;28;20027;-89
2023/09/06 00:40:57;;;;;;;27.02;16.90;;;16.50;99.90;;;;;;4974009;28;20037;-88
2023/09/06 00:43:23;;;;;;;27.75;16.20;;;16.50;99.90;;;;;;4976722;28;20023;-87
2023/09/06 00:45:50;;;;;;;28.52;16.35;;;16.40;99.90;;;;;;4992160;28;20038;-89
2023/09/06 00:48:25;;;;;;;26.75;17.08;;;16.40;99.90;;;;;;4976050;28;20023;-88
2023/09/06 00:50:54;;;;;;;23.55;15.48;;;16.40;99.90;;;;;;4975975;28;20561;-87
2023/09/06 00:53:22;;;;;;;28.80;16.70;;;16.40;99.90;;;;;;4976941;28;20466;-88
2023/09/06 00:55:48;;;;;;;29.20;17.85;;;16.30;99.90;;;;;;4975968;28;20034;-88
2023/09/06 00:58:15;;;;;;;35.08;19.15;;;16.30;99.90;;;;;;4976426;28;20026;-88
2023/09/06 01:00:46;;;;;;;35.85;19.48;;;16.30;99.90;;;;;;4979638;28;20050;-88
2023/09/06 01:03:13;;;;;;;34.53;20.45;;;16.20;99.90;;;;;;4977291;28;20046;-87
2023/09/06 01:06:00;;;;;;;37.00;22.45;;;16.20;99.90;;;;;;4976664;28;20033;-86
2023/09/06 01:08:31;;;;;;;35.25;21.13;;;16.20;99.90;;;;;;4977031;28;20019;-87
2023/09/06 01:11:21;;;;;;;37.00;21.90;;;16.10;99.90;;;;;;4976047;28;20064;-88
2023/09/06 01:13:54;;;;;;;39.83;23.03;;;16.10;99.90;;;;;;4975854;28;20058;-86
2023/09/06 01:16:28;;;;;;;46.58;24.63;;;16.00;99.90;;;;;;4976360;28;20150;-88
2023/09/06 01:18:54;;;;;;;44.38;25.30;;;16.10;99.90;;;;;;4992548;28;20027;-88
2023/09/06 01:21:25;;;;;;;53.63;27.75;;;16.00;99.90;;;;;;4979032;28;20054;-86
2023/09/06 01:23:52;;;;;;;48.08;24.92;;;16.00;99.90;;;;;;4977370;28;20031;-89
2023/09/06 01:26:18;;;;;;;55.03;28.27;;;16.00;99.90;;;;;;4975934;28;20034;-89
2023/09/06 01:28:44;;;;;;;47.13;25.98;;;15.90;99.90;;;;;;4975414;28;20027;-88
2023/09/06 01:31:10;;;;;;;51.65;28.95;;;15.90;99.90;;;;;;4974887;28;20532;-88
2023/09/06 01:33:36;;;;;;;53.92;28.10;;;15.90;99.90;;;;;;4975311;28;20059;-88
2023/09/06 01:36:02;;;;;;;54.67;28.63;;;15.90;99.90;;;;;;4990945;28;20034;-88
2023/09/06 01:38:27;;;;;;;57.10;28.95;;;15.90;99.90;;;;;;4976076;28;20397;-89
2023/09/06 01:40:53;;;;;;;57.75;29.40;;;15.80;99.90;;;;;;4975269;28;20026;-89
2023/09/06 01:43:19;;;;;;;56.47;28.70;;;15.80;99.90;;;;;;4976166;28;20490;-88
2023/09/06 01:45:54;;;;;;;60.05;28.63;;;15.80;99.90;;;;;;4975416;28;20027;-88
2023/09/06 01:48:20;;;;;;;54.88;27.13;;;15.80;99.90;;;;;;4975319;28;20030;-88
2023/09/06 01:50:46;;;;;;;57.33;29.92;;;15.80;99.90;;;;;;4990895;28;20039;-88
2023/09/06 01:53:13;;;;;;;53.38;28.55;;;15.70;99.90;;;;;;4974133;28;20027;-88
2023/09/06 01:55:41;;;;;;;54.50;26.98;;;15.70;99.90;;;;;;4975136;28;20039;-88
2023/09/06 01:58:08;;;;;;;56.75;28.50;;;15.70;99.90;;;;;;4982549;28;20023;-87
2023/09/06 02:00:36;;;;;;;54.33;27.42;;;15.70;99.90;;;;;;4986580;28;20031;-87
2023/09/06 02:03:02;;;;;;;54.50;27.75;;;15.60;99.90;;;;;;4983019;28;20050;-89
2023/09/06 02:05:30;;;;;;;49.92;25.48;;;15.60;99.90;;;;;;4982324;28;20067;-89
2023/09/06 02:07:55;;;;;;;53.80;26.98;;;15.60;99.90;;;;;;4993632;28;20041;-89
2023/09/06 02:10:21;;;;;;;53.13;25.25;;;15.60;99.90;;;;;;4976466;28;20486;-88
2023/09/06 02:12:47;;;;;;;49.80;25.65;;;15.60;99.90;;;;;;4974910;28;20029;-88
2023/09/06 02:15:14;;;;;;;53.92;27.85;;;15.50;99.90;;;;;;4975050;28;20121;-87
2023/09/06 02:17:44;;;;;;;54.33;27.58;;;15.50;99.90;;;;;;4974995;28;20049;-87
2023/09/06 02:20:24;;;;;;;51.20;26.20;;;15.50;99.90;;;;;;4974247;28;20033;-88
2023/09/06 02:22:51;;;;;;;50.47;24.73;;;15.50;99.90;;;;;;4973877;28;20117;-88
2023/09/06 02:25:21;;;;;;;44.33;24.42;;;15.40;99.90;;;;;;4990252;28;20022;-88
2023/09/06 02:27:47;;;;;;;49.10;25.30;;;15.40;99.90;;;;;;4975923;28;20474;-89
2023/09/06 02:30:13;;;;;;;51.35;26.60;;;15.40;99.90;;;;;;4974559;28;20367;-88
2023/09/06 02:32:38;;;;;;;50.92;25.67;;;15.40;99.90;;;;;;4975157;28;20089;-88
2023/09/06 02:35:07;;;;;;;48.10;23.95;;;15.40;99.90;;;;;;4975442;28;20055;-88
2023/09/06 02:37:36;;;;;;;50.00;24.67;;;15.30;99.90;;;;;;4974329;28;20055;-88
2023/09/06 02:40:07;;;;;;;48.85;24.38;;;15.30;99.90;;;;;;4974781;28;20034;-88
2023/09/06 02:42:36;;;;;;;48.78;24.00;;;15.30;99.90;;;;;;4979272;28;20178;-86
2023/09/06 02:45:04;;;;;;;49.47;25.83;;;15.30;99.90;;;;;;4973596;28;20023;-89
2023/09/06 02:47:30;;;;;;;56.92;25.85;;;15.20;99.90;;;;;;4973419;28;20041;-88
2023/09/06 02:49:55;;;;;;;48.22;24.13;;;15.20;99.90;;;;;;4973782;28;20019;-88
2023/09/06 02:52:30;;;;;;;46.88;23.15;;;15.20;99.90;;;;;;4973101;28;20039;-87
2023/09/06 02:55:01;;;;;;;52.05;24.73;;;15.20;99.90;;;;;;4973535;28;20023;-89
2023/09/06 02:57:27;;;;;;;50.53;24.70;;;15.10;99.90;;;;;;4973846;28;20037;-88
2023/09/06 02:59:53;;;;;;;51.88;25.13;;;15.10;99.90;;;;;;4973600;28;20453;-89
2023/09/06 03:02:20;;;;;;;52.20;23.75;;;15.10;99.90;;;;;;4975046;28;20023;-90
2023/09/06 03:04:45;;;;;;;49.45;24.00;;;15.00;99.90;;;;;;4972254;28;20031;-87
2023/09/06 03:07:11;;;;;;;50.47;24.30;;;15.00;99.90;;;;;;4973765;28;20393;-89
2023/09/06 03:09:38;;;;;;;53.58;25.77;;;15.00;99.90;;;;;;4974829;28;20082;-89
2023/09/06 03:12:11;;;;;;;53.45;25.27;;;15.00;99.90;;;;;;4974326;28;20435;-89
2023/09/06 03:14:44;;;;;;;52.33;26.15;;;15.00;99.90;;;;;;4974732;28;20023;-89
2023/09/06 03:17:11;;;;;;;47.35;23.17;;;14.90;99.90;;;;;;4973602;28;20085;-89
2023/09/06 03:19:45;;;;;;;48.47;24.63;;;14.90;99.90;;;;;;4973705;28;20019;-88
2023/09/06 03:22:12;;;;;;;48.88;24.05;;;14.80;99.90;;;;;;4983305;28;20053;-89
2023/09/06 03:24:40;;;;;;;51.80;23.83;;;14.80;99.90;;;;;;4993731;28;20026;-88
2023/09/06 03:27:07;;;;;;;49.92;24.92;;;14.80;99.90;;;;;;4991988;28;20029;-89
2023/09/06 03:29:36;;;;;;;49.67;23.88;;;14.80;99.90;;;;;;4992685;28;20077;-88
2023/09/06 03:32:09;;;;;;;50.17;23.25;;;14.80;99.90;;;;;;4991995;28;20057;-87
2023/09/06 03:34:40;;;;;;;49.08;23.88;;;14.80;99.90;;;;;;4992038;28;20050;-88
2023/09/06 03:37:08;;;;;;;47.58;23.17;;;14.70;99.90;;;;;;5008960;28;20030;-89
2023/09/06 03:39:40;;;;;;;48.47;23.20;;;14.70;99.90;;;;;;4994179;28;20021;-89
2023/09/06 03:42:08;;;;;;;48.95;23.00;;;14.70;99.90;;;;;;4992857;28;20045;-89
2023/09/06 03:44:38;;;;;;;48.97;23.27;;;14.70;99.90;;;;;;4993594;28;20029;-89
2023/09/06 03:47:06;;;;;;;49.72;23.58;;;14.60;99.90;;;;;;4991899;28;20030;-89
2023/09/06 03:49:35;;;;;;;48.08;22.80;;;14.60;99.90;;;;;;4992998;28;20393;-88
2023/09/06 03:52:04;;;;;;;45.80;22.70;;;14.60;99.90;;;;;;5009614;28;20121;-88
2023/09/06 03:54:34;;;;;;;50.20;22.48;;;14.50;99.90;;;;;;4992630;28;20022;-89
2023/09/06 03:57:07;;;;;;;51.13;22.55;;;14.50;99.90;;;;;;4992300;28;20033;-88
2023/09/06 03:59:35;;;;;;;45.75;22.15;;;14.50;99.90;;;;;;4992375;28;20057;-87
2023/09/06 04:02:07;;;;;;;47.95;22.90;;;14.50;99.90;;;;;;4992598;28;20053;-89
2023/09/06 04:04:34;;;;;;;47.70;22.23;;;14.50;99.90;;;;;;4992817;28;20034;-88
2023/09/06 04:07:00;;;;;;;41.58;20.33;;;14.50;99.90;;;;;;4992954;28;20096;-88
2023/09/06 04:09:30;;;;;;;48.38;22.48;;;14.50;99.90;;;;;;4993267;28;20158;-89
2023/09/06 04:11:58;;;;;;;45.47;22.77;;;14.40;99.90;;;;;;5008356;28;20042;-89
2023/09/06 04:14:25;;;;;;;51.65;23.85;;;14.40;99.90;;;;;;4991857;28;20037;-86
2023/09/06 04:16:50;;;;;;;46.10;22.83;;;14.40;99.90;;;;;;5012046;28;20054;-89
2023/09/06 04:19:16;;;;;;;50.25;23.55;;;14.40;99.90;;;;;;4996406;28;20061;-88
2023/09/06 04:21:43;;;;;;;50.55;23.98;;;14.40;99.90;;;;;;4996324;28;20030;-88
2023/09/06 04:24:09;;;;;;;44.67;22.20;;;14.30;99.90;;;;;;4996549;28;20026;-88
2023/09/06 04:26:35;;;;;;;51.33;23.45;;;14.30;99.90;;;;;;5000348;28;20033;-88
2023/09/06 04:29:04;;;;;;;48.95;23.35;;;14.30;99.90;;;;;;4996764;28;20163;-88
2023/09/06 04:31:30;;;;;;;47.35;22.08;;;14.30;99.90;;;;;;4996814;28;20046;-88
2023/09/06 04:34:00;;;;;;;50.05;24.02;;;14.30;99.90;;;;;;4997179;28;20049;-88
2023/09/06 04:36:26;;;;;;;44.50;23.73;;;14.20;99.90;;;;;;4996060;28;20228;-87
2023/09/06 04:38:52;;;;;;;49.45;22.45;;;14.20;99.90;;;;;;4997024;28;20026;-87
2023/09/06 04:41:18;;;;;;;42.22;22.00;;;14.10;99.90;;;;;;4996662;28;20080;-90
2023/09/06 04:43:44;;;;;;;46.92;23.95;;;14.10;99.90;;;;;;4995692;28;20026;-90
2023/09/06 04:46:10;;;;;;;47.05;21.95;;;14.10;99.90;;;;;;4995121;28;20080;-89
2023/09/06 04:48:36;;;;;;;45.17;22.25;;;14.10;99.90;;;;;;4996714;28;20034;-88
2023/09/06 04:51:02;;;;;;;43.92;21.40;;;14.00;99.90;;;;;;4996877;28;20042;-90
2023/09/06 04:53:28;;;;;;;46.72;24.05;;;14.00;99.90;;;;;;5011880;28;20027;-89
2023/09/06 04:55:54;;;;;;;59.42;21.80;;;14.00;99.90;;;;;;4996037;28;20037;-91
2023/09/06 04:58:20;;;;;;;49.88;22.63;;;14.00;99.90;;;;;;4998641;28;20038;-91
2023/09/06 05:00:50;;;;;;;54.80;23.65;;;14.00;99.90;;;;;;5001817;28;20037;-90
2023/09/06 05:03:19;;;;;;;44.42;22.90;;;13.90;99.90;;;;;;5000592;28;20025;-89
2023/09/06 05:05:46;;;;;;;42.63;21.55;;;13.90;99.90;;;;;;4999235;28;20548;-90
2023/09/06 05:08:11;;;;;;;51.35;23.75;;;13.90;99.90;;;;;;4997828;28;20072;-90
2023/09/06 05:10:37;;;;;;;44.60;21.92;;;13.90;99.90;;;;;;4997296;28;20117;-90
2023/09/06 05:13:07;;;;;;;47.08;23.58;;;13.80;99.90;;;;;;4996559;28;20441;-89
2023/09/06 05:15:37;;;;;;;48.63;23.70;;;13.80;99.90;;;;;;4998110;28;20025;-89
2023/09/06 05:18:04;;;;;;;50.20;21.88;;;13.80;99.90;;;;;;4995174;28;20277;-89
2023/09/06 05:20:35;;;;;;;42.95;21.92;;;13.80;99.90;;;;;;4997793;28;20060;-89
2023/09/06 05:23:20;;;;;;;45.30;22.50;;;13.80;99.90;;;;;;4995949;28;20033;-88
2023/09/06 05:25:46;;;;;;;43.40;22.05;;;13.80;99.90;;;;;;4998738;28;20079;-89
2023/09/06 05:28:14;;;;;;;49.92;24.65;;;13.80;99.90;;;;;;4975331;28;20026;-89
2023/09/06 05:30:43;;;;;;;53.78;25.73;;;13.80;99.90;;;;;;4976191;28;20121;-89
2023/09/06 05:33:09;;;;;;;51.50;24.13;;;13.90;99.90;;;;;;4976348;28;20058;-89
2023/09/06 05:35:35;;;;;;;74.90;27.33;;;13.80;99.90;;;;;;4975088;28;20022;-89
2023/09/06 05:38:03;;;;;;;52.78;25.35;;;13.80;99.90;;;;;;4975088;28;20034;-89
2023/09/06 05:40:30;;;;;;;45.33;23.77;;;13.90;99.90;;;;;;4975065;28;20034;-89
2023/09/06 05:42:56;;;;;;;45.30;21.67;;;13.70;99.90;;;;;;4974899;28;20026;-89
2023/09/06 05:45:22;;;;;;;54.72;25.15;;;13.70;99.90;;;;;;4974840;28;20450;-89
2023/09/06 05:47:48;;;;;;;50.70;23.63;;;13.60;99.90;;;;;;4975242;28;20023;-89
2023/09/06 05:50:14;;;;;;;62.13;26.30;;;13.60;99.90;;;;;;4975170;28;20029;-90
2023/09/06 05:52:40;;;;;;;65.38;27.73;;;13.60;99.90;;;;;;4972983;28;20034;-88
2023/09/06 05:55:06;;;;;;;62.33;27.98;;;13.60;99.90;;;;;;4974449;28;20111;-88
2023/09/06 05:57:32;;;;;;;71.00;30.98;;;13.60;99.90;;;;;;4973843;28;20034;-89
2023/09/06 05:59:59;;;;;;;83.72;31.17;;;13.60;99.90;;;;;;4974142;28;20046;-89
2023/09/06 06:02:25;;;;;;;81.07;31.38;;;13.60;99.90;;;;;;4974221;28;20019;-88
2023/09/06 06:04:52;;;;;;;84.38;29.98;;;13.70;99.90;;;;;;4973641;28;20022;-89
2023/09/06 06:07:17;;;;;;;93.05;31.63;;;13.70;99.90;;;;;;4973910;28;20525;-89
2023/09/06 06:09:44;;;;;;;79.40;28.90;;;13.70;99.90;;;;;;4975252;28;20030;-87
2023/09/06 06:12:10;;;;;;;58.83;25.90;;;13.80;99.90;;;;;;4974558;28;20118;-90
2023/09/06 06:14:37;;;;;;;60.00;25.60;;;13.80;99.90;;;;;;4973510;28;20110;-88
2023/09/06 06:17:06;;;;;;;53.97;24.20;;;13.80;99.90;;;;;;4990226;28;20118;-88
2023/09/06 06:19:35;;;;;;;58.88;25.58;;;13.80;99.90;;;;;;4971878;28;20018;-88
2023/09/06 06:22:02;;;;;;;66.18;25.88;;;13.70;99.90;;;;;;4983895;28;20030;-89
2023/09/06 06:24:28;;;;;;;72.88;26.92;;;13.60;99.90;;;;;;4981892;28;20027;-91
2023/09/06 06:26:54;;;;;;;82.00;29.48;;;13.60;99.90;;;;;;4983913;28;20026;-90
2023/09/06 06:29:20;;;;;;;80.57;28.52;;;13.60;99.90;;;;;;4982408;28;20047;-89
2023/09/06 06:31:45;;;;;;;75.82;27.80;;;13.70;99.90;;;;;;4982271;28;20077;-90
2023/09/06 06:34:13;;;;;;;73.28;27.35;;;13.70;99.90;;;;;;4978012;28;20042;-90
2023/09/06 06:36:39;;;;;;;84.85;26.55;;;13.80;99.90;;;;;;4988436;28;20047;-89
2023/09/06 06:39:05;;;;;;;65.95;26.58;;;13.80;99.90;;;;;;4982217;28;20050;-87
2023/09/06 06:41:31;;;;;;;67.00;26.60;;;13.80;99.90;;;;;;4982405;28;20030;-89
2023/09/06 06:43:56;;;;;;;52.38;24.95;;;13.90;99.90;;;;;;4986953;28;20022;-89
2023/09/06 06:46:29;;;;;;;60.92;26.90;;;13.90;99.90;;;;;;4980689;28;20107;-90
2023/09/06 06:48:56;;;;;;;57.97;26.73;;;13.90;99.90;;;;;;4974802;28;20038;-91
2023/09/06 06:51:25;;;;;;;57.03;25.95;;;13.90;99.90;;;;;;4986413;28;20034;-90
2023/09/06 06:53:51;;;;;;;55.17;25.77;;;14.00;99.90;;;;;;4984371;28;20022;-90
2023/09/06 06:56:21;;;;;;;55.38;25.70;;;14.00;99.90;;;;;;4993053;28;20037;-89
2023/09/06 06:58:48;;;;;;;47.90;24.08;;;14.00;99.90;;;;;;4993557;28;20046;-89
2023/09/06 07:01:14;;;;;;;49.42;25.45;;;14.00;99.90;;;;;;4983449;28;20038;-90
2023/09/06 07:03:40;;;;;;;46.70;23.77;;;14.10;99.90;;;;;;4974610;28;20069;-90
2023/09/06 07:06:07;;;;;;;35.13;18.40;;;14.10;99.90;;;;;;4972651;28;20038;-90
2023/09/06 07:08:33;;;;;;;39.30;19.85;;;14.20;99.90;;;;;;4974369;28;20037;-88
2023/09/06 07:10:59;;;;;;;38.38;19.75;;;14.30;99.90;;;;;;4974108;28;20109;-89
2023/09/06 07:13:25;;;;;;;42.00;21.17;;;14.40;99.90;;;;;;4973849;28;20033;-89
2023/09/06 07:15:51;;;;;;;40.88;19.65;;;14.50;99.90;;;;;;4975887;28;20062;-89
2023/09/06 07:18:17;;;;;;;35.88;19.55;;;14.60;99.90;;;;;;4975238;28;20030;-89
2023/09/06 07:20:43;;;;;;;32.13;18.90;;;14.70;99.90;;;;;;4995808;28;20077;-90
2023/09/06 07:23:08;;;;;;;37.03;19.30;;;14.80;99.90;;;;;;4981208;28;20102;-90
2023/09/06 07:25:34;;;;;;;35.22;19.67;;;14.80;99.90;;;;;;4973994;28;20023;-88
2023/09/06 07:28:00;;;;;;;34.13;19.58;;;14.90;99.90;;;;;;4972898;28;20023;-88
2023/09/06 07:30:26;;;;;;;40.90;19.33;;;15.00;99.90;;;;;;4975661;28;20022;-88
2023/09/06 07:32:51;;;;;;;35.20;18.15;;;15.10;99.90;;;;;;4973279;28;20398;-87
2023/09/06 07:35:17;;;;;;;34.38;17.10;;;15.20;99.90;;;;;;4989961;28;20415;-89
2023/09/06 07:37:43;;;;;;;30.67;17.33;;;15.30;99.90;;;;;;4971454;28;20500;-88
2023/09/06 07:40:10;;;;;;;34.70;17.55;;;15.40;99.90;;;;;;4972410;28;20027;-88
2023/09/06 07:42:39;;;;;;;32.45;18.75;;;15.50;99.90;;;;;;4972778;28;20053;-90
2023/09/06 07:45:07;;;;;;;32.80;17.55;;;15.70;99.90;;;;;;4972526;28;20030;-91
2023/09/06 07:47:36;;;;;;;30.20;16.27;;;15.70;99.90;;;;;;4973159;28;20034;-91
2023/09/06 07:50:01;;;;;;;33.10;16.88;;;15.80;99.90;;;;;;4973459;28;20486;-90
2023/09/06 07:52:27;;;;;;;30.08;16.50;;;16.00;99.90;;;;;;4976223;28;20042;-89
2023/09/06 07:54:53;;;;;;;38.45;19.08;;;16.00;99.90;;;;;;4974252;28;20027;-88
2023/09/06 07:57:19;;;;;;;37.67;18.00;;;16.10;99.90;;;;;;4978353;28;20027;-91
2023/09/06 07:59:45;;;;;;;36.40;18.98;;;16.10;99.90;;;;;;4977065;28;20490;-90
2023/09/06 08:02:10;;;;;;;33.08;16.90;;;16.10;99.90;;;;;;4983063;28;20038;-91
2023/09/06 08:04:36;;;;;;;34.80;17.45;;;16.20;99.90;;;;;;4993660;28;20445;-93
2023/09/06 08:07:03;;;;;;;36.38;17.98;;;16.20;99.90;;;;;;5000308;28;20273;-94
2023/09/06 08:09:29;;;;;;;33.65;17.23;;;16.30;99.90;;;;;;4995391;28;20026;-90
2023/09/06 08:11:54;;;;;;;26.17;14.13;;;16.40;99.90;;;;;;4996337;28;20133;-93
2023/09/06 08:14:21;;;;;;;34.08;18.25;;;16.50;99.90;;;;;;4976782;28;20033;-88
2023/09/06 08:16:46;;;;;;;29.10;16.60;;;16.60;99.90;;;;;;4972744;28;20031;-88
2023/09/06 08:19:12;;;;;;;26.15;15.32;;;16.70;99.90;;;;;;4977236;28;20026;-88
2023/09/06 08:21:38;;;;;;;36.33;18.45;;;16.80;99.90;;;;;;4979628;28;20141;-88
2023/09/06 08:24:03;;;;;;;31.40;17.73;;;16.90;99.90;;;;;;4974821;28;20496;-88
2023/09/06 08:26:29;;;;;;;30.17;16.58;;;17.00;99.90;;;;;;4971467;28;20573;-88
2023/09/06 08:28:56;;;;;;;32.83;16.60;;;17.00;99.90;;;;;;4983397;28;20023;-89
2023/09/06 08:31:21;;;;;;;27.40;14.75;;;17.10;99.90;;;;;;4972511;28;20038;-88
2023/09/06 08:33:47;;;;;;;30.60;16.13;;;17.20;99.90;;;;;;4972791;28;20043;-88
2023/09/06 08:36:13;;;;;;;29.30;17.63;;;17.40;99.90;;;;;;4972493;28;20030;-89
2023/09/06 08:38:42;;;;;;;34.17;17.42;;;17.50;99.90;;;;;;4973076;28;20081;-89
2023/09/06 08:41:08;;;;;;;31.85;16.98;;;17.60;99.90;;;;;;4972857;28;20023;-89
2023/09/06 08:43:36;;;;;;;28.88;16.88;;;17.70;99.90;;;;;;4972867;28;20093;-89
2023/09/06 08:46:11;;;;;;;32.58;16.95;;;17.90;99.90;;;;;;4972776;28;20110;-89
2023/09/06 08:48:37;;;;;;;33.95;17.52;;;18.00;99.90;;;;;;4972082;28;20031;-89
2023/09/06 08:51:05;;;;;;;27.58;14.60;;;18.10;99.90;;;;;;4971869;28;20085;-88
2023/09/06 08:53:34;;;;;;;28.92;15.55;;;18.20;99.90;;;;;;4967127;28;20031;-89
2023/09/06 08:56:01;;;;;;;26.20;13.23;;;18.40;99.90;;;;;;4972386;28;20065;-88
2023/09/06 08:58:27;;;;;;;24.85;13.63;;;18.50;99.90;;;;;;4972770;28;20062;-91
2023/09/06 09:00:55;;;;;;;27.67;15.38;;;18.70;99.90;;;;;;4974214;28;20031;-88
2023/09/06 09:03:20;;;;;;;27.65;15.85;;;18.80;99.90;;;;;;4976012;28;20054;-90
2023/09/06 09:05:46;;;;;;;32.42;15.40;;;18.90;99.90;;;;;;4975806;28;20050;-90
2023/09/06 09:08:35;;;;;;;26.30;13.80;;;19.10;99.90;;;;;;4980473;28;20019;-89
2023/09/06 09:11:20;;;;;;;23.50;13.88;;;19.20;99.90;;;;;;4976758;28;20134;-90
2023/09/06 09:13:46;;;;;;;20.38;12.55;;;19.50;99.90;;;;;;4975901;28;20065;-90
2023/09/06 09:16:14;;;;;;;20.67;12.63;;;19.60;99.90;;;;;;4976456;28;20034;-90
2023/09/06 09:18:41;;;;;;;19.40;12.43;;;19.80;99.90;;;;;;4976820;28;20054;-91
2023/09/06 09:21:32;;;;;;;19.20;11.23;;;19.90;99.90;;;;;;4982621;28;20401;-90
2023/09/06 09:23:58;;;;;;;19.77;12.32;;;20.10;99.90;;;;;;4961185;28;20058;-90
2023/09/06 09:26:23;;;;;;;19.40;11.50;;;20.20;99.90;;;;;;4974657;28;20070;-90
2023/09/06 09:28:49;;;;;;;17.45;10.35;;;20.40;99.90;;;;;;4976986;28;20034;-89
2023/09/06 09:31:16;;;;;;;17.08;10.85;;;20.60;99.90;;;;;;4975805;28;20041;-91
2023/09/06 09:33:45;;;;;;;17.42;10.30;;;20.80;99.90;;;;;;4976032;28;20085;-91
2023/09/06 09:36:14;;;;;;;16.08;10.85;;;21.00;99.90;;;;;;4975297;28;20158;-90
2023/09/06 09:38:42;;;;;;;15.30;10.27;;;21.10;99.90;;;;;;4975886;28;20027;-90
2023/09/06 09:41:08;;;;;;;14.73;9.93;;;21.40;99.90;;;;;;4976347;28;20033;-90
2023/09/06 09:43:35;;;;;;;14.02;8.88;;;21.60;99.90;;;;;;4974772;28;20077;-90
2023/09/06 09:46:01;;;;;;;12.30;8.55;;;21.80;99.90;;;;;;4974368;28;20089;-90
2023/09/06 09:48:31;;;;;;;12.90;8.85;;;22.00;99.90;;;;;;4973955;28;20053;-91
2023/09/06 09:50:58;;;;;;;13.85;9.23;;;22.10;99.90;;;;;;4988964;28;20101;-91
2023/09/06 09:53:24;;;;;;;14.52;9.38;;;22.30;99.90;;;;;;4993657;28;20034;-90
2023/09/06 09:55:55;;;;;;;13.48;9.55;;;22.50;99.90;;;;;;4993211;28;20133;-89
2023/09/06 09:58:24;;;;;;;11.48;8.15;;;22.60;99.90;;;;;;4993956;28;20039;-91
2023/09/06 10:00:50;;;;;;;12.77;8.63;;;22.80;99.90;;;;;;4975257;28;20490;-91
2023/09/06 10:03:18;;;;;;;16.48;9.45;;;22.90;99.90;;;;;;4975217;28;20601;-92
2023/09/06 10:05:47;;;;;;;15.50;9.85;;;23.10;99.90;;;;;;4993651;28;20042;-91
2023/09/06 10:08:13;;;;;;;14.75;9.75;;;23.20;99.90;;;;;;4995008;28;20124;-91
2023/09/06 10:10:40;;;;;;;13.00;9.30;;;23.30;99.90;;;;;;4994539;28;20049;-90
2023/09/06 10:13:09;;;;;;;11.73;8.88;;;23.50;99.90;;;;;;4994156;28;20121;-90
2023/09/06 10:15:37;;;;;;;12.88;8.35;;;23.70;99.90;;;;;;4993768;28;20118;-91
2023/09/06 10:18:04;;;;;;;10.88;7.78;;;23.90;99.90;;;;;;4995972;28;20034;-90
2023/09/06 10:20:32;;;;;;;13.07;8.02;;;24.10;99.90;;;;;;4994376;28;20035;-91
2023/09/06 10:22:59;;;;;;;10.57;7.53;;;24.40;99.90;;;;;;4995490;28;20030;-91
2023/09/06 10:25:26;;;;;;;10.30;7.20;;;24.60;99.60;;;;;;4994770;28;20022;-92
2023/09/06 10:27:53;;;;;;;13.82;8.52;;;24.80;98.40;;;;;;4994473;28;20035;-91
2023/09/06 10:30:34;;;;;;;8.10;6.18;;;24.90;97.10;;;;;;4994192;28;20150;-91
2023/09/06 10:33:01;;;;;;;9.75;6.63;;;25.00;95.60;;;;;;4994455;28;20073;-91
2023/09/06 10:35:31;;;;;;;9.48;6.32;;;25.20;95.30;;;;;;4993989;28;20057;-90
2023/09/06 10:38:07;;;;;;;9.68;6.30;;;25.40;94.70;;;;;;4994292;28;20034;-89
2023/09/06 10:40:49;;;;;;;8.70;5.97;;;25.70;94.10;;;;;;4994049;28;20030;-91
2023/09/06 10:43:26;;;;;;;9.60;6.65;;;26.00;93.00;;;;;;4994335;28;20030;-90
2023/09/06 10:46:18;;;;;;;8.82;6.28;;;26.20;92.10;;;;;;4993890;28;20395;-89
2023/09/06 10:49:11;;;;;;;8.63;6.65;;;26.40;90.80;;;;;;4993395;28;20022;-89
2023/09/06 10:52:09;;;;;;;9.93;6.90;;;26.60;90.00;;;;;;4993742;28;20034;-90
2023/09/06 10:54:38;;;;;;;9.38;6.15;;;26.70;88.80;;;;;;4993738;28;20027;-89
2023/09/06 10:57:10;;;;;;;11.95;7.03;;;26.90;88.00;;;;;;4993903;28;20089;-90
2023/09/06 10:59:55;;;;;;;12.27;7.57;;;27.00;87.10;;;;;;4993330;28;20057;-89
2023/09/06 11:02:21;;;;;;;11.00;7.15;;;27.10;86.20;;;;;;5002335;28;20138;-89
2023/09/06 11:04:47;;;;;;;10.02;6.78;;;27.20;85.60;;;;;;5004475;28;20117;-88
2023/09/06 11:07:13;;;;;;;10.75;7.32;;;27.20;85.30;;;;;;5004687;28;20030;-89
2023/09/06 11:09:50;;;;;;;12.07;7.18;;;27.40;84.70;;;;;;5002421;28;20029;-90
2023/09/06 11:12:16;;;;;;;11.75;7.28;;;27.50;84.00;;;;;;5000684;28;20042;-90
2023/09/06 11:14:47;;;;;;;10.70;6.65;;;27.60;83.10;;;;;;4998881;28;20029;-90
2023/09/06 11:17:21;;;;;;;9.10;6.63;;;27.70;82.80;;;;;;4997411;28;20026;-90
2023/09/06 11:19:47;;;;;;;7.90;5.82;;;27.90;82.40;;;;;;4998598;28;20033;-89
2023/09/06 11:22:13;;;;;;;14.63;7.15;;;28.10;81.80;;;;;;5001145;28;20023;-89
2023/09/06 11:24:38;;;;;;;10.00;7.05;;;28.30;80.90;;;;;;4988348;28;20027;-90
2023/09/06 11:27:19;;;;;;;9.75;6.88;;;28.60;80.40;;;;;;4979779;28;20510;-88
2023/09/06 11:29:47;;;;;;;10.00;6.43;;;28.70;78.30;;;;;;4978756;28;20023;-88
2023/09/06 11:32:13;;;;;;;10.18;7.57;;;28.90;77.80;;;;;;4970321;28;20039;-88
2023/09/06 11:34:49;;;;;;;11.27;6.93;;;29.00;76.70;;;;;;4978504;28;20113;-91
2023/09/06 11:37:21;;;;;;;10.50;5.18;;;29.10;75.70;;;;;;4975127;28;20532;-92
2023/09/06 11:39:47;;;;;;;7.88;6.10;;;29.20;75.40;;;;;;4976822;28;20023;-90
2023/09/06 11:42:15;;;;;;;9.55;7.03;;;29.40;74.70;;;;;;4975137;28;20508;-88
2023/09/06 11:44:47;;;;;;;10.35;6.35;;;29.50;74.00;;;;;;4973866;28;20026;-90
2023/09/06 11:47:15;;;;;;;7.72;5.72;;;29.50;73.60;;;;;;4970764;28;20026;-90
2023/09/06 11:49:45;;;;;;;8.07;5.90;;;29.50;73.20;;;;;;4979872;28;20022;-90
2023/09/06 11:52:13;;;;;;;14.43;7.32;;;29.50;72.90;;;;;;4973148;28;20034;-90
2023/09/06 11:54:39;;;;;;;14.25;6.35;;;29.60;72.70;;;;;;4973133;28;20085;-90
2023/09/06 11:57:05;;;;;;;8.65;5.75;;;29.70;72.20;;;;;;4973459;28;20113;-90
2023/09/06 11:59:34;;;;;;;7.80;6.18;;;29.70;72.00;;;;;;4975467;28;20388;-90
2023/09/06 12:02:01;;;;;;;12.23;6.00;;;29.80;71.70;;;;;;4973709;28;20026;-90
2023/09/06 12:04:29;;;;;;;7.75;5.78;;;29.80;71.30;;;;;;4974250;28;20086;-90
2023/09/06 12:06:56;;;;;;;9.02;6.20;;;30.00;71.50;;;;;;4976276;28;20037;-89
2023/09/06 12:09:25;;;;;;;14.43;6.72;;;30.10;70.60;;;;;;4973562;28;20042;-90
2023/09/06 12:11:51;;;;;;;10.68;6.78;;;30.10;70.20;;;;;;4967800;28;20383;-90
2023/09/06 12:14:17;;;;;;;11.25;6.88;;;30.10;70.00;;;;;;4973516;28;20034;-90
2023/09/06 12:16:43;;;;;;;11.60;6.18;;;30.10;69.80;;;;;;4971640;28;20037;-89
2023/09/06 12:19:13;;;;;;;9.68;6.90;;;30.20;69.80;;;;;;4972737;28;20109;-91
2023/09/06 12:21:39;;;;;;;11.43;6.68;;;30.30;69.40;;;;;;4973064;28;20039;-89
2023/09/06 12:24:05;;;;;;;14.07;6.95;;;30.50;69.30;;;;;;4972581;28;20023;-91
2023/09/06 12:26:33;;;;;;;13.27;6.43;;;30.60;68.80;;;;;;4974768;28;20026;-89
2023/09/06 12:28:58;;;;;;;10.80;7.07;;;30.70;68.40;;;;;;4972187;28;20077;-90
2023/09/06 12:31:24;;;;;;;8.27;6.45;;;30.70;68.20;;;;;;4974014;28;20034;-90
2023/09/06 12:33:51;;;;;;;16.98;6.75;;;30.80;68.00;;;;;;4967983;28;20426;-89
2023/09/06 12:36:17;;;;;;;9.43;5.93;;;30.90;67.90;;;;;;4979902;28;20042;-89